createdAt,value
2023-01-18T00:02:08.718Z,9.18
2023-01-18T00:04:37.595Z,9.19
2023-01-18T00:07:06.307Z,9.17
2023-01-18T00:09:35.293Z,9.23
2023-01-18T00:12:04.100Z,9.22
2023-01-18T00:14:32.946Z,9.22
2023-01-18T00:17:01.788Z,9.26
2023-01-18T00:19:30.537Z,9.23
2023-01-18T00:21:59.464Z,9.20
2023-01-18T00:24:29.551Z,9.10
2023-01-18T00:26:58.555Z,9.11
2023-01-18T00:29:27.924Z,9.15
2023-01-18T00:31:57.095Z,9.21
2023-01-18T00:34:29.103Z,9.23
2023-01-18T00:36:58.182Z,9.10
2023-01-18T00:39:27.181Z,9.06
2023-01-18T00:42:31.267Z,9.10
2023-01-18T00:45:00.323Z,9.10
2023-01-18T00:47:29.516Z,9.15
2023-01-18T00:49:58.389Z,9.16
2023-01-18T00:52:27.236Z,9.23
2023-01-18T00:54:56.560Z,9.29
2023-01-18T00:57:25.291Z,9.44
2023-01-18T00:59:54.165Z,9.62
2023-01-18T01:02:23.238Z,9.68
2023-01-18T01:05:10.794Z,9.80
2023-01-18T01:07:40.142Z,9.91
2023-01-18T01:10:11.096Z,10.01
2023-01-18T01:12:59.605Z,10.05
2023-01-18T01:15:48.143Z,10.10
2023-01-18T01:18:36.627Z,10.08
2023-01-18T01:21:25.709Z,10.14
2023-01-18T01:24:14.320Z,10.16
2023-01-18T01:26:44.038Z,10.21
2023-01-18T01:29:15.042Z,10.22
2023-01-18T01:31:45.209Z,10.20
2023-01-18T01:34:16.627Z,10.20
2023-01-18T01:36:47.346Z,10.17
2023-01-18T01:39:19.028Z,10.14
2023-01-18T01:41:49.040Z,10.17
2023-01-18T01:48:16.578Z,10.19
2023-01-18T01:50:46.497Z,10.24
2023-01-18T01:53:16.704Z,10.27
2023-01-18T01:55:46.426Z,10.22
2023-01-18T01:58:24.643Z,10.33
2023-01-18T02:00:55.404Z,10.21
2023-01-18T02:03:27.556Z,10.25
2023-01-18T02:06:10.875Z,10.24
2023-01-18T02:08:41.759Z,10.11
2023-01-18T02:11:11.793Z,10.04
2023-01-18T02:13:41.367Z,10.06
2023-01-18T02:16:31.725Z,10.21
2023-01-18T02:19:25.892Z,10.24
2023-01-18T02:22:22.402Z,10.22
2023-01-18T02:25:32.910Z,10.30
2023-01-18T02:28:18.610Z,10.27
2023-01-18T02:30:57.481Z,10.16
2023-01-18T02:33:29.843Z,10.15
2023-01-18T02:36:03.505Z,10.23
2023-01-18T02:38:42.237Z,10.27
2023-01-18T02:41:20.749Z,10.18
2023-01-18T02:44:12.963Z,10.27
2023-01-18T02:46:45.585Z,10.26
2023-01-18T02:49:35.455Z,10.37
2023-01-18T02:52:07.569Z,10.27
2023-01-18T02:54:41.809Z,10.34
2023-01-18T02:57:16.955Z,10.31
2023-01-18T02:59:54.493Z,10.41
2023-01-18T03:02:27.642Z,10.35
2023-01-18T03:04:58.033Z,10.38
2023-01-18T03:07:42.654Z,10.50
2023-01-18T03:10:13.464Z,10.51
2023-01-18T03:13:01.367Z,10.89
2023-01-18T03:15:36.800Z,10.90
2023-01-18T03:19:03.668Z,11.11
2023-01-18T03:21:48.598Z,11.12
2023-01-18T03:24:20.621Z,11.10
2023-01-18T03:26:54.287Z,11.20
2023-01-18T03:29:43.487Z,11.21
2023-01-18T03:32:34.754Z,11.28
2023-01-18T03:35:11.073Z,11.43
2023-01-18T03:37:46.560Z,11.55
2023-01-18T03:40:20.646Z,11.65
2023-01-18T03:42:55.127Z,11.61
2023-01-18T03:45:39.131Z,11.57
2023-01-18T03:48:10.169Z,11.51
2023-01-18T03:51:03.788Z,11.56
2023-01-18T03:53:42.590Z,11.59
2023-01-18T03:56:23.021Z,12.03
2023-01-18T03:58:55.536Z,11.89
2023-01-18T04:01:25.110Z,12.32
2023-01-18T04:03:54.526Z,12.21
2023-01-18T04:06:24.432Z,12.15
2023-01-18T04:08:54.644Z,12.22
2023-01-18T04:11:23.851Z,12.23
2023-01-18T04:13:54.458Z,12.41
2023-01-18T04:16:24.064Z,12.39
2023-01-18T04:18:55.651Z,12.51
2023-01-18T04:21:24.818Z,12.20
2023-01-18T04:23:53.620Z,12.55
2023-01-18T04:26:22.695Z,12.65
2023-01-18T04:28:52.016Z,12.84
2023-01-18T04:31:21.177Z,12.88
2023-01-18T04:33:53.042Z,13.06
2023-01-18T04:36:23.397Z,13.05
2023-01-18T04:38:56.356Z,13.18
2023-01-18T04:41:25.955Z,13.03
2023-01-18T04:43:55.107Z,13.19
2023-01-18T04:46:24.344Z,13.18
2023-01-18T04:48:53.493Z,13.02
2023-01-18T04:51:25.046Z,13.32
2023-01-18T04:53:57.699Z,13.67
2023-01-18T04:56:27.499Z,13.88
2023-01-18T04:58:57.393Z,13.56
2023-01-18T05:01:26.618Z,13.74
2023-01-18T05:03:55.936Z,13.87
2023-01-18T05:06:25.662Z,13.97
2023-01-18T05:08:55.377Z,13.83
2023-01-18T05:11:24.562Z,13.86
2023-01-18T05:13:54.114Z,13.90
2023-01-18T05:16:24.787Z,14.21
2023-01-18T05:18:54.478Z,14.35
2023-01-18T05:21:23.992Z,14.42
2023-01-18T05:23:53.209Z,14.50
2023-01-18T05:26:24.600Z,14.57
2023-01-18T05:28:58.699Z,14.83
2023-01-18T05:31:28.485Z,14.83
2023-01-18T05:34:00.639Z,14.95
2023-01-18T05:36:29.875Z,15.02
2023-01-18T05:38:59.059Z,14.98
2023-01-18T05:41:28.311Z,15.08
2023-01-18T05:43:57.676Z,14.85
2023-01-18T05:46:27.018Z,15.15
2023-01-18T05:49:00.445Z,15.38
2023-01-18T05:51:30.089Z,15.33
2023-01-18T05:53:59.528Z,15.46
2023-01-18T05:56:29.255Z,15.24
2023-01-18T05:58:58.426Z,15.23
2023-01-18T06:01:28.340Z,15.43
2023-01-18T06:03:57.715Z,15.49
2023-01-18T06:06:28.430Z,15.50
2023-01-18T06:08:57.537Z,15.68
2023-01-18T06:11:26.788Z,15.67
2023-01-18T06:13:56.150Z,15.95
2023-01-18T06:16:25.936Z,15.94
2023-01-18T06:18:55.768Z,16.01
2023-01-18T06:21:25.871Z,15.74
2023-01-18T06:23:55.005Z,15.87
2023-01-18T06:26:24.838Z,16.00
2023-01-18T06:28:54.632Z,16.18
2023-01-18T06:31:24.259Z,16.10
2023-01-18T06:33:53.925Z,16.24
2023-01-18T06:36:23.858Z,16.38
2023-01-18T06:38:53.637Z,16.17
2023-01-18T06:41:22.817Z,16.29
2023-01-18T06:43:52.217Z,16.35
2023-01-18T06:46:21.411Z,16.32
2023-01-18T06:48:50.365Z,16.47
2023-01-18T06:51:21.560Z,16.51
2023-01-18T06:53:51.391Z,16.34
2023-01-18T06:56:20.794Z,16.46
2023-01-18T06:58:49.849Z,16.43
2023-01-18T07:01:19.394Z,16.73
2023-01-18T07:03:48.525Z,16.72
2023-01-18T07:06:17.451Z,16.70
2023-01-18T07:08:46.958Z,16.75
2023-01-18T07:11:16.162Z,16.90
2023-01-18T07:13:45.859Z,16.80
2023-01-18T07:16:19.045Z,16.87
2023-01-18T07:18:50.040Z,16.99
2023-01-18T07:21:30.430Z,17.16
2023-01-18T07:24:00.945Z,17.04
2023-01-18T07:26:30.420Z,17.20
2023-01-18T07:28:59.607Z,17.40
2023-01-18T07:31:28.998Z,17.20
2023-01-18T07:33:58.577Z,17.40
2023-01-18T07:36:27.967Z,17.56
2023-01-18T07:38:57.267Z,17.54
2023-01-18T07:41:27.268Z,17.55
2023-01-18T07:43:56.994Z,17.76
2023-01-18T07:46:27.031Z,17.62
2023-01-18T07:48:56.844Z,17.86
2023-01-18T07:51:26.168Z,17.84
2023-01-18T07:53:56.609Z,18.00
2023-01-18T07:56:26.938Z,18.00
2023-01-18T07:58:56.906Z,18.05
2023-01-18T08:01:26.498Z,18.17
2023-01-18T08:03:56.319Z,17.89
2023-01-18T08:06:27.609Z,18.11
2023-01-18T08:08:58.002Z,18.25
2023-01-18T08:11:27.490Z,18.40
2023-01-18T08:13:57.126Z,18.34
2023-01-18T08:16:28.000Z,18.37
2023-01-18T08:18:57.216Z,18.43
2023-01-18T08:21:27.094Z,18.30
2023-01-18T08:23:56.611Z,18.22
2023-01-18T08:26:26.853Z,18.33
2023-01-18T08:28:57.278Z,18.35
2023-01-18T08:31:26.803Z,18.16
2023-01-18T08:33:56.048Z,18.32
2023-01-18T08:36:27.722Z,18.41
2023-01-18T08:38:58.116Z,18.39
2023-01-18T08:41:32.341Z,18.36
2023-01-18T08:44:01.912Z,18.26
2023-01-18T08:46:31.195Z,18.28
2023-01-18T08:49:00.907Z,18.36
2023-01-18T08:51:30.399Z,18.40
2023-01-18T08:54:01.049Z,18.44
2023-01-18T08:56:30.430Z,18.47
2023-01-18T08:59:00.897Z,18.56
2023-01-18T09:01:30.892Z,18.53
2023-01-18T09:04:00.719Z,18.70
2023-01-18T09:06:33.222Z,18.83
2023-01-18T09:09:03.408Z,18.81
2023-01-18T09:11:33.083Z,18.92
2023-01-18T09:14:02.527Z,18.95
2023-01-18T09:16:32.967Z,18.80
2023-01-18T09:19:07.130Z,18.94
2023-01-18T09:21:36.485Z,18.95
2023-01-18T09:24:06.121Z,18.93
2023-01-18T09:26:35.589Z,18.61
2023-01-18T09:29:05.310Z,18.81
2023-01-18T09:31:34.521Z,19.00
2023-01-18T09:34:18.351Z,18.89
2023-01-18T09:36:52.401Z,18.97
2023-01-18T09:39:23.508Z,18.90
2023-01-18T09:41:56.637Z,18.89
2023-01-18T09:44:36.562Z,18.82
2023-01-18T09:47:05.818Z,18.91
2023-01-18T09:49:45.185Z,19.01
2023-01-18T09:52:28.708Z,19.09
2023-01-18T09:55:09.288Z,18.67
2023-01-18T09:57:56.708Z,18.89
2023-01-18T10:00:28.578Z,18.96
2023-01-18T10:03:02.556Z,18.99
2023-01-18T10:06:10.906Z,19.08
2023-01-18T10:09:08.139Z,18.84
2023-01-18T10:12:00.820Z,18.68
2023-01-18T10:14:56.291Z,18.90
2023-01-18T10:17:39.417Z,18.77
2023-01-18T10:20:40.854Z,18.84
2023-01-18T10:23:36.315Z,18.84
2023-01-18T10:26:19.040Z,18.69
2023-01-18T10:29:26.528Z,18.67
2023-01-18T10:32:17.386Z,18.74
2023-01-18T10:34:51.609Z,18.71
2023-01-18T10:37:34.404Z,18.40
2023-01-18T10:40:06.603Z,18.62
2023-01-18T10:42:48.415Z,18.47
2023-01-18T10:45:22.521Z,18.31
2023-01-18T10:47:56.735Z,18.27
2023-01-18T10:50:41.016Z,18.18
2023-01-18T10:53:25.922Z,18.36
2023-01-18T10:56:02.891Z,18.36
2023-01-18T10:58:45.665Z,18.35
2023-01-18T11:01:29.682Z,18.33
2023-01-18T11:04:08.604Z,18.28
2023-01-18T11:06:54.778Z,18.28
2023-01-18T11:09:47.930Z,18.27
2023-01-18T11:12:42.293Z,18.23
2023-01-18T11:15:17.449Z,18.17
2023-01-18T11:17:58.923Z,18.04
2023-01-18T11:20:51.110Z,18.17
2023-01-18T11:23:37.277Z,18.12
2023-01-18T11:26:09.091Z,18.01
2023-01-18T11:29:15.170Z,18.07
2023-01-18T11:31:51.713Z,18.06
2023-01-18T11:34:31.742Z,18.01
2023-01-18T11:37:03.272Z,17.81
2023-01-18T11:39:35.850Z,17.84
2023-01-18T11:42:26.724Z,17.88
2023-01-18T11:45:09.593Z,17.83
2023-01-18T11:48:03.183Z,17.80
2023-01-18T11:50:35.790Z,17.74
2023-01-18T11:53:41.201Z,17.71
2023-01-18T11:56:28.495Z,17.63
2023-01-18T11:58:58.037Z,17.46
2023-01-18T12:01:47.523Z,17.46
2023-01-18T12:04:28.434Z,17.54
2023-01-18T12:07:04.505Z,17.37
2023-01-18T12:09:51.490Z,17.39
2023-01-18T12:12:49.675Z,17.34
2023-01-18T12:15:31.470Z,17.25
2023-01-18T12:18:21.009Z,17.20
2023-01-18T12:20:50.459Z,17.04
2023-01-18T12:23:28.891Z,17.10
2023-01-18T12:26:22.238Z,17.07
2023-01-18T12:29:12.181Z,16.99
2023-01-18T12:32:03.407Z,16.81
2023-01-18T12:35:24.299Z,16.76
2023-01-18T12:38:19.923Z,16.69
2023-01-18T12:41:17.647Z,16.52
2023-01-18T12:44:14.002Z,16.51
2023-01-18T12:47:18.399Z,16.50
2023-01-18T12:49:53.666Z,16.38
2023-01-18T12:52:24.433Z,16.16
2023-01-18T12:54:58.121Z,16.17
2023-01-18T12:57:28.227Z,15.97
2023-01-18T13:00:03.418Z,15.88
2023-01-18T13:02:41.275Z,15.99
2023-01-18T13:05:13.633Z,15.91
2023-01-18T13:08:01.700Z,15.94
2023-01-18T13:10:31.153Z,15.75
2023-01-18T13:13:00.939Z,15.69
2023-01-18T13:15:39.002Z,15.62
2023-01-18T13:18:38.253Z,15.58
2023-01-18T13:21:26.277Z,15.57
2023-01-18T13:24:24.634Z,15.42
2023-01-18T13:26:54.365Z,15.25
2023-01-18T13:29:32.837Z,15.36
2023-01-18T13:32:02.465Z,15.17
2023-01-18T13:34:47.980Z,15.32
2023-01-18T13:37:43.358Z,15.38
2023-01-18T13:40:23.257Z,15.33
2023-01-18T13:42:52.708Z,15.21
2023-01-18T13:45:27.707Z,15.34
2023-01-18T13:47:57.750Z,15.22
2023-01-18T13:50:32.873Z,15.30
2023-01-18T13:53:20.493Z,15.37
2023-01-18T13:56:02.408Z,15.39
2023-01-18T13:58:35.236Z,15.29
2023-01-18T14:01:06.648Z,15.29
2023-01-18T14:03:45.067Z,15.35
2023-01-18T14:06:33.828Z,15.41
2023-01-18T14:09:08.576Z,15.39
2023-01-18T14:11:43.227Z,15.33
2023-01-18T14:14:18.906Z,15.40
2023-01-18T14:17:01.798Z,15.38
2023-01-18T14:19:35.789Z,15.27
2023-01-18T14:22:17.988Z,15.42
2023-01-18T14:24:58.236Z,15.54
2023-01-18T14:27:33.538Z,15.53
2023-01-18T14:30:14.848Z,15.64
2023-01-18T14:32:55.426Z,15.63
2023-01-18T14:35:26.378Z,15.62
2023-01-18T14:38:18.986Z,15.78
2023-01-18T14:40:52.540Z,15.70
2023-01-18T14:43:34.844Z,15.72
2023-01-18T14:46:06.208Z,15.58
2023-01-18T14:48:42.219Z,15.50
2023-01-18T14:51:11.579Z,15.36
2023-01-18T14:53:48.627Z,15.49
2023-01-18T14:56:22.222Z,15.44
2023-01-18T14:59:00.000Z,15.53
2023-01-18T15:01:39.585Z,15.55
2023-01-18T15:04:20.624Z,15.62
2023-01-18T15:06:55.434Z,15.49
2023-01-18T15:09:28.172Z,15.46
2023-01-18T15:12:01.256Z,15.53
2023-01-18T15:14:35.266Z,15.58
2023-01-18T15:17:09.904Z,15.62
2023-01-18T15:19:46.551Z,15.66
2023-01-18T15:22:19.018Z,15.65
2023-01-18T15:24:48.953Z,15.58
2023-01-18T15:27:22.379Z,15.72
2023-01-18T15:29:56.394Z,15.68
2023-01-18T15:32:35.796Z,15.62
2023-01-18T15:35:06.775Z,15.54
2023-01-18T15:37:41.184Z,15.49
2023-01-18T15:40:16.324Z,15.56
2023-01-18T15:43:22.899Z,15.57
2023-01-18T15:45:56.894Z,15.44
2023-01-18T15:48:28.199Z,15.46
2023-01-18T15:51:06.038Z,15.44
2023-01-18T15:53:46.656Z,15.42
2023-01-18T15:56:24.735Z,15.26
2023-01-18T15:58:57.064Z,15.28
2023-01-18T16:01:29.865Z,15.54
2023-01-18T16:04:10.090Z,15.40
2023-01-18T16:06:41.463Z,15.31
2023-01-18T16:09:16.843Z,15.33
2023-01-18T16:11:51.029Z,15.30
2023-01-18T16:14:34.413Z,15.25
2023-01-18T16:17:08.954Z,15.29
2023-01-18T16:19:45.683Z,15.35
2023-01-18T16:22:39.185Z,15.41
2023-01-18T16:25:11.062Z,15.22
2023-01-18T16:27:51.600Z,15.42
2023-01-18T16:30:22.144Z,15.27
2023-01-18T16:32:55.518Z,15.19
2023-01-18T16:35:25.186Z,15.12
2023-01-18T16:37:54.444Z,15.04
2023-01-18T16:40:25.776Z,15.10
2023-01-18T16:43:07.501Z,15.10
2023-01-18T16:45:39.878Z,14.99
2023-01-18T16:48:14.232Z,15.01
2023-01-18T16:50:43.824Z,15.02
2023-01-18T16:53:17.033Z,14.98
2023-01-18T16:55:49.473Z,14.87
2023-01-18T16:58:23.113Z,14.92
2023-01-18T17:01:14.885Z,15.05
2023-01-18T17:03:46.069Z,14.92
2023-01-18T17:06:22.011Z,14.94
2023-01-18T17:08:51.799Z,14.84
2023-01-18T17:11:21.519Z,14.81
2023-01-18T17:13:51.208Z,14.74
2023-01-18T17:16:24.799Z,14.77
2023-01-18T17:18:54.513Z,14.75
2023-01-18T17:21:23.861Z,14.75
2023-01-18T17:23:53.357Z,14.75
2023-01-18T17:26:22.606Z,14.76
2023-01-18T17:28:51.699Z,14.75
2023-01-18T17:31:21.444Z,14.74
2023-01-18T17:33:51.235Z,14.72
2023-01-18T17:36:21.067Z,14.60
2023-01-18T17:38:50.919Z,14.63
2023-01-18T17:41:27.257Z,14.76
2023-01-18T17:43:58.303Z,14.66
2023-01-18T17:46:27.864Z,14.67
2023-01-18T17:48:57.279Z,14.68
2023-01-18T17:51:26.510Z,14.62
2023-01-18T17:53:55.773Z,14.64
2023-01-18T17:56:24.917Z,14.53
2023-01-18T17:58:55.568Z,14.54
2023-01-18T18:01:24.827Z,14.54
2023-01-18T18:03:54.290Z,14.40
2023-01-18T18:06:30.950Z,14.46
2023-01-18T18:09:03.305Z,14.65
2023-01-18T18:11:32.886Z,14.63
2023-01-18T18:14:03.097Z,14.65
2023-01-18T18:16:36.267Z,14.55
2023-01-18T18:19:15.469Z,14.55
2023-01-18T18:21:46.204Z,14.55
2023-01-18T18:24:15.560Z,14.64
2023-01-18T18:26:44.568Z,14.65
2023-01-18T18:29:13.954Z,14.71
2023-01-18T18:31:44.797Z,14.71
2023-01-18T18:34:14.310Z,14.69
2023-01-18T18:36:43.521Z,14.44
2023-01-18T18:39:12.605Z,14.41
2023-01-18T18:41:43.889Z,14.46
2023-01-18T18:44:13.052Z,14.46
2023-01-18T18:46:42.527Z,14.49
2023-01-18T18:49:11.754Z,14.53
2023-01-18T18:51:41.423Z,14.44
2023-01-18T18:54:12.722Z,14.46
2023-01-18T18:56:42.603Z,14.14
2023-01-18T18:59:11.833Z,14.24
2023-01-18T19:01:40.762Z,14.22
2023-01-18T19:04:10.527Z,14.21
2023-01-18T19:06:40.331Z,14.18
2023-01-18T19:09:09.938Z,14.08
2023-01-18T19:11:41.624Z,14.12
2023-01-18T19:14:15.780Z,14.14
2023-01-18T19:16:45.053Z,14.10
2023-01-18T19:19:14.555Z,14.01
2023-01-18T19:21:44.195Z,13.97
2023-01-18T19:24:13.001Z,13.99
2023-01-18T19:26:42.283Z,14.03
2023-01-18T19:29:11.571Z,13.90
2023-01-18T19:31:40.884Z,13.94
2023-01-18T19:34:10.052Z,13.94
2023-01-18T19:36:39.487Z,13.90
2023-01-18T19:39:14.680Z,13.92
2023-01-18T19:41:51.033Z,13.95
2023-01-18T19:44:20.488Z,13.98
2023-01-18T19:46:49.870Z,14.07
2023-01-18T19:49:21.240Z,14.13
2023-01-18T19:51:50.539Z,14.14
2023-01-18T19:54:19.309Z,14.25
2023-01-18T19:56:49.104Z,14.37
2023-01-18T19:59:18.436Z,13.97
2023-01-18T20:01:47.769Z,14.00
2023-01-18T20:04:18.468Z,14.20
2023-01-18T20:06:47.818Z,14.38
2023-01-18T20:09:20.467Z,14.35
2023-01-18T20:11:51.106Z,14.28
2023-01-18T20:14:20.555Z,14.03
2023-01-18T20:16:49.711Z,14.11
2023-01-18T20:19:20.174Z,14.26
2023-01-18T20:21:49.815Z,14.44
2023-01-18T20:24:19.222Z,14.36
2023-01-18T20:26:48.461Z,14.39
2023-01-18T20:29:17.918Z,14.31
2023-01-18T20:31:50.151Z,14.49
2023-01-18T20:34:19.461Z,14.62
2023-01-18T20:36:51.068Z,14.61
2023-01-18T20:39:20.766Z,14.95
2023-01-18T20:41:51.159Z,14.75
2023-01-18T20:44:20.366Z,14.74
2023-01-18T20:46:52.027Z,14.75
2023-01-18T20:49:29.926Z,14.65
2023-01-18T20:52:02.984Z,14.47
2023-01-18T20:54:34.863Z,14.38
2023-01-18T20:57:07.207Z,14.62
2023-01-18T20:59:36.512Z,14.41
2023-01-18T21:02:05.881Z,14.57
2023-01-18T21:04:35.475Z,14.63
2023-01-18T21:07:04.824Z,14.60
2023-01-18T21:09:34.179Z,14.69
2023-01-18T21:12:03.314Z,14.63
2023-01-18T21:14:32.496Z,14.69
2023-01-18T21:17:01.698Z,14.82
2023-01-18T21:19:30.896Z,14.54
2023-01-18T21:22:00.164Z,14.68
2023-01-18T21:24:29.476Z,14.75
2023-01-18T21:26:58.447Z,14.83
2023-01-18T21:29:28.369Z,14.88
2023-01-18T21:31:58.048Z,14.99
2023-01-18T21:34:27.160Z,15.14
2023-01-18T21:36:56.360Z,15.11
2023-01-18T21:39:29.366Z,15.05
2023-01-18T21:42:17.291Z,14.97
2023-01-18T21:45:04.954Z,14.88
2023-01-18T21:47:34.330Z,14.89
2023-01-18T21:50:21.782Z,14.80
2023-01-18T21:53:09.720Z,14.85
2023-01-18T21:55:41.235Z,14.94
2023-01-18T21:58:28.503Z,14.87
2023-01-18T22:01:01.600Z,14.90
2023-01-18T22:03:30.574Z,14.90
2023-01-18T22:06:02.349Z,14.97
2023-01-18T22:08:31.304Z,14.87
2023-01-18T22:11:00.487Z,14.84
2023-01-18T22:13:30.045Z,14.78
2023-01-18T22:16:05.357Z,14.90
2023-01-18T22:18:34.843Z,14.85
2023-01-18T22:21:04.123Z,14.90
2023-01-18T22:23:33.179Z,14.77
2023-01-18T22:26:02.626Z,14.80
2023-01-18T22:28:31.798Z,14.87
2023-01-18T22:31:02.207Z,14.89
2023-01-18T22:33:31.541Z,14.86
2023-01-18T22:36:01.723Z,14.92
2023-01-18T22:38:31.388Z,14.75
2023-01-18T22:41:08.694Z,14.88
2023-01-18T22:43:39.410Z,14.79
2023-01-18T22:46:10.424Z,14.87
2023-01-18T22:48:40.251Z,14.81
2023-01-18T22:51:11.739Z,14.82
2023-01-18T22:53:41.453Z,14.79
2023-01-18T22:56:31.024Z,14.81
2023-01-18T22:59:01.674Z,14.69
2023-01-18T23:01:33.527Z,14.74
2023-01-18T23:04:05.805Z,14.78
2023-01-18T23:06:46.496Z,14.64
2023-01-18T23:09:17.432Z,14.67
2023-01-18T23:11:48.383Z,14.66
2023-01-18T23:14:35.618Z,14.61
2023-01-18T23:17:22.947Z,14.57
2023-01-18T23:19:52.655Z,14.59
2023-01-18T23:22:22.014Z,14.55
2023-01-18T23:24:51.470Z,14.48
2023-01-18T23:27:20.690Z,14.43
2023-01-18T23:29:58.247Z,14.44
2023-01-18T23:32:31.315Z,14.51
2023-01-18T23:35:01.429Z,14.46
2023-01-18T23:37:30.910Z,14.45
2023-01-18T23:40:18.407Z,14.42
2023-01-18T23:43:05.924Z,14.45
2023-01-18T23:45:53.739Z,14.37
2023-01-18T23:48:41.193Z,14.42
2023-01-18T23:51:28.794Z,14.39
2023-01-18T23:54:16.506Z,14.38
2023-01-18T23:56:47.502Z,14.41
2023-01-18T23:59:16.823Z,14.31
